createdAt,value
2019-05-17T00:00:44.112Z,6.30
2019-05-17T00:03:14.192Z,6.50
2019-05-17T00:05:46.487Z,6.80
2019-05-17T00:08:20.369Z,6.53
2019-05-17T00:10:47.894Z,6.77
2019-05-17T00:13:17.961Z,5.53
2019-05-17T00:15:48.038Z,5.27
2019-05-17T00:18:18.144Z,5.63
2019-05-17T00:20:48.195Z,5.17
2019-05-17T00:23:18.287Z,5.20
2019-05-17T00:25:48.366Z,5.20
2019-05-17T00:28:18.462Z,4.33
2019-05-17T00:30:48.519Z,4.10
2019-05-17T00:33:18.595Z,4.00
2019-05-17T00:35:48.659Z,3.97
2019-05-17T00:38:18.733Z,4.30
2019-05-17T00:40:48.794Z,3.67
2019-05-17T00:43:18.936Z,3.67
2019-05-17T00:45:48.995Z,3.33
2019-05-17T00:48:19.096Z,4.30
2019-05-17T00:50:53.148Z,3.47
2019-05-17T00:53:22.343Z,4.07
2019-05-17T00:55:52.482Z,3.57
2019-05-17T00:58:22.551Z,3.70
2019-05-17T01:00:52.618Z,3.70
2019-05-17T01:03:22.689Z,4.37
2019-05-17T01:05:52.758Z,4.07
2019-05-17T01:08:22.829Z,4.20
2019-05-17T01:10:52.890Z,5.13
2019-05-17T01:13:23.032Z,4.13
2019-05-17T01:15:53.108Z,4.33
2019-05-17T01:18:23.191Z,3.73
2019-05-17T01:20:53.282Z,4.43
2019-05-17T01:23:23.374Z,4.90
2019-05-17T01:25:53.432Z,4.47
2019-05-17T01:28:23.501Z,4.57
2019-05-17T01:30:53.590Z,4.70
2019-05-17T01:33:23.668Z,4.43
2019-05-17T01:35:53.754Z,5.07
2019-05-17T01:38:23.858Z,5.10
2019-05-17T01:40:53.906Z,4.77
2019-05-17T01:43:23.974Z,4.87
2019-05-17T01:45:54.040Z,4.60
2019-05-17T01:48:24.104Z,5.13
2019-05-17T01:50:54.177Z,5.57
2019-05-17T01:53:24.284Z,6.10
2019-05-17T01:55:56.657Z,5.23
2019-05-17T01:58:27.003Z,5.43
2019-05-17T02:00:57.513Z,4.97
2019-05-17T02:03:27.602Z,5.43
2019-05-17T02:05:57.665Z,5.23
2019-05-17T02:08:27.755Z,5.07
2019-05-17T02:10:57.875Z,6.40
2019-05-17T02:13:27.956Z,6.53
2019-05-17T02:15:58.003Z,6.73
2019-05-17T02:18:28.109Z,5.97
2019-05-17T02:20:58.176Z,6.13
2019-05-17T02:23:28.251Z,5.60
2019-05-17T02:25:58.347Z,6.57
2019-05-17T02:28:28.451Z,6.40
2019-05-17T02:30:58.816Z,6.57
2019-05-17T02:33:29.119Z,6.13
2019-05-17T02:35:59.202Z,7.00
2019-05-17T02:38:29.269Z,6.50
2019-05-17T02:41:02.905Z,7.33
2019-05-17T02:43:33.383Z,7.60
2019-05-17T02:46:03.963Z,6.83
2019-05-17T02:48:34.499Z,6.83
2019-05-17T02:51:04.582Z,7.50
2019-05-17T02:53:34.691Z,7.03
2019-05-17T02:56:04.760Z,7.00
2019-05-17T02:58:34.830Z,6.57
2019-05-17T03:01:04.916Z,8.20
2019-05-17T03:03:35.014Z,7.50
2019-05-17T03:06:05.085Z,6.83
2019-05-17T03:08:35.172Z,7.77
2019-05-17T03:11:05.418Z,6.40
2019-05-17T03:13:35.507Z,6.90
2019-05-17T03:16:05.577Z,7.60
2019-05-17T03:18:35.680Z,6.83
2019-05-17T03:21:05.760Z,7.33
2019-05-17T03:23:35.821Z,6.97
2019-05-17T03:26:05.908Z,6.80
2019-05-17T03:28:35.997Z,6.37
2019-05-17T03:31:08.754Z,6.40
2019-05-17T03:33:38.330Z,6.10
2019-05-17T03:36:08.428Z,6.53
2019-05-17T03:38:38.595Z,6.17
2019-05-17T03:41:18.450Z,6.30
2019-05-17T03:43:44.134Z,6.83
2019-05-17T03:46:13.891Z,6.57
2019-05-17T03:48:44.467Z,6.60
2019-05-17T03:51:14.540Z,6.43
2019-05-17T03:53:44.634Z,7.27
2019-05-17T03:56:14.744Z,6.40
2019-05-17T03:58:44.799Z,6.73
2019-05-17T04:01:17.143Z,6.80
2019-05-17T04:03:47.213Z,6.93
2019-05-17T04:06:17.317Z,6.23
2019-05-17T04:08:47.397Z,6.20
2019-05-17T04:11:27.820Z,6.57
2019-05-17T04:13:49.277Z,6.33
2019-05-17T04:16:19.373Z,6.80
2019-05-17T04:18:49.441Z,7.47
2019-05-17T04:21:19.529Z,7.30
2019-05-17T04:23:49.595Z,7.03
2019-05-17T04:26:22.760Z,6.97
2019-05-17T04:28:53.310Z,6.77
2019-05-17T04:31:23.301Z,7.10
2019-05-17T04:33:53.794Z,7.37
2019-05-17T04:36:24.057Z,7.77
2019-05-17T04:38:54.103Z,7.53
2019-05-17T04:41:40.305Z,6.83
2019-05-17T04:43:55.971Z,7.73
2019-05-17T04:46:26.038Z,7.20
2019-05-17T04:48:56.107Z,6.53
2019-05-17T04:51:26.291Z,7.20
2019-05-17T04:53:56.381Z,7.10
2019-05-17T04:56:26.452Z,7.03
2019-05-17T04:58:56.522Z,7.27
2019-05-17T05:01:26.587Z,7.50
2019-05-17T05:03:56.698Z,7.47
2019-05-17T05:06:26.782Z,7.17
2019-05-17T05:08:56.944Z,7.20
2019-05-17T05:11:27.011Z,6.87
2019-05-17T05:13:57.130Z,7.47
2019-05-17T05:16:27.202Z,7.07
2019-05-17T05:18:57.289Z,7.47
2019-05-17T05:21:27.352Z,6.60
2019-05-17T05:23:57.436Z,5.97
2019-05-17T05:26:27.497Z,6.50
2019-05-17T05:28:57.872Z,6.27
2019-05-17T05:31:27.936Z,6.60
2019-05-17T05:33:58.017Z,5.97
2019-05-17T05:36:28.106Z,6.57
2019-05-17T05:38:58.186Z,5.77
2019-05-17T05:41:28.265Z,5.50
2019-05-17T05:43:58.329Z,5.23
2019-05-17T05:46:28.452Z,5.47
2019-05-17T05:48:58.596Z,5.07
2019-05-17T05:51:28.666Z,5.20
2019-05-17T05:53:58.735Z,5.43
2019-05-17T05:56:28.820Z,5.07
2019-05-17T05:58:58.904Z,5.77
2019-05-17T06:01:29.080Z,5.97
2019-05-17T06:03:59.130Z,6.00
2019-05-17T06:06:29.224Z,5.00
2019-05-17T06:08:59.317Z,5.90
2019-05-17T06:11:29.428Z,5.87
2019-05-17T06:14:01.527Z,5.87
2019-05-17T06:16:32.148Z,5.70
2019-05-17T06:19:02.506Z,6.00
2019-05-17T06:21:32.575Z,6.60
2019-05-17T06:24:02.773Z,5.43
2019-05-17T06:26:32.819Z,6.50
2019-05-17T06:29:03.010Z,7.07
2019-05-17T06:31:33.393Z,6.53
2019-05-17T06:34:03.562Z,7.17
2019-05-17T06:36:33.626Z,6.30
2019-05-17T06:39:05.057Z,6.93
2019-05-17T06:41:35.158Z,6.27
2019-05-17T06:44:05.247Z,5.73
2019-05-17T06:46:35.322Z,6.93
2019-05-17T06:49:05.420Z,7.07
2019-05-17T06:51:35.513Z,6.47
2019-05-17T06:54:05.870Z,6.70
2019-05-17T06:56:35.946Z,6.17
2019-05-17T06:59:06.017Z,5.70
2019-05-17T07:01:36.129Z,5.80
2019-05-17T07:04:06.204Z,5.93
2019-05-17T07:06:36.608Z,5.90
2019-05-17T07:09:09.872Z,5.20
2019-05-17T07:11:39.920Z,5.83
2019-05-17T07:14:10.594Z,5.17
2019-05-17T07:16:40.698Z,5.87
2019-05-17T07:19:10.808Z,5.77
2019-05-17T07:21:40.955Z,5.47
2019-05-17T07:24:11.027Z,5.40
2019-05-17T07:26:41.128Z,5.47
2019-05-17T07:29:11.203Z,5.77
2019-05-17T07:31:41.300Z,5.73
2019-05-17T07:34:11.383Z,5.60
2019-05-17T07:36:41.502Z,5.27
2019-05-17T07:39:11.607Z,5.93
2019-05-17T07:41:41.726Z,6.00
2019-05-17T07:44:11.799Z,5.80
2019-05-17T07:46:41.914Z,5.33
2019-05-17T07:49:12.025Z,5.17
2019-05-17T07:51:42.157Z,5.43
2019-05-17T07:54:12.254Z,5.60
2019-05-17T07:56:42.354Z,4.87
2019-05-17T07:59:12.467Z,4.87
2019-05-17T08:01:42.568Z,4.80
2019-05-17T08:04:12.678Z,4.63
2019-05-17T08:06:42.769Z,4.97
2019-05-17T08:09:14.106Z,4.77
2019-05-17T08:11:44.452Z,5.33
2019-05-17T08:14:26.675Z,4.73
2019-05-17T08:16:46.411Z,5.03
2019-05-17T08:19:16.534Z,5.10
2019-05-17T08:21:46.641Z,4.07
2019-05-17T08:24:16.700Z,4.50
2019-05-17T08:26:50.218Z,4.00
2019-05-17T08:29:20.423Z,4.67
2019-05-17T08:31:50.541Z,3.90
2019-05-17T08:34:20.599Z,4.17
2019-05-17T08:36:50.688Z,3.87
2019-05-17T08:39:20.783Z,4.37
2019-05-17T08:41:50.923Z,3.73
2019-05-17T08:44:21.016Z,3.33
2019-05-17T08:46:51.146Z,3.17
2019-05-17T08:49:21.243Z,3.23
2019-05-17T08:51:51.406Z,3.13
2019-05-17T08:54:21.464Z,3.40
2019-05-17T08:56:51.581Z,3.67
2019-05-17T08:59:21.667Z,3.90
2019-05-17T09:01:51.735Z,4.63
2019-05-17T09:04:21.806Z,4.17
2019-05-17T09:06:51.906Z,3.53
2019-05-17T09:09:21.979Z,3.87
2019-05-17T09:11:52.125Z,3.83
2019-05-17T09:14:22.275Z,4.53
2019-05-17T09:16:52.344Z,4.27
2019-05-17T09:19:22.471Z,4.03
2019-05-17T09:21:52.574Z,4.63
2019-05-17T09:24:22.650Z,4.87
2019-05-17T09:26:52.763Z,3.80
2019-05-17T09:29:22.848Z,5.37
2019-05-17T09:31:52.944Z,4.40
2019-05-17T09:34:23.027Z,4.17
2019-05-17T09:36:53.292Z,3.87
2019-05-17T09:39:23.902Z,4.13
2019-05-17T09:41:54.003Z,4.73
2019-05-17T09:44:24.072Z,4.63
2019-05-17T09:46:54.470Z,4.40
2019-05-17T09:49:24.570Z,3.83
2019-05-17T09:51:54.648Z,4.83
2019-05-17T09:54:41.131Z,4.10
2019-05-17T09:56:56.515Z,4.20
2019-05-17T09:59:26.640Z,3.70
2019-05-17T10:01:56.732Z,4.23
2019-05-17T10:04:26.806Z,4.20
2019-05-17T10:06:59.262Z,3.77
2019-05-17T10:09:28.711Z,3.50
2019-05-17T10:12:00.021Z,3.60
2019-05-17T10:14:31.411Z,3.90
2019-05-17T10:17:01.684Z,3.77
2019-05-17T10:19:31.779Z,4.37
2019-05-17T10:22:01.895Z,4.37
2019-05-17T10:24:38.120Z,3.93
2019-05-17T10:27:03.945Z,4.27
2019-05-17T10:29:34.024Z,4.20
2019-05-17T10:32:04.143Z,3.53
2019-05-17T10:34:34.222Z,3.23
2019-05-17T10:37:04.503Z,4.87
2019-05-17T10:39:34.571Z,4.50
2019-05-17T10:42:04.718Z,4.00
2019-05-17T10:44:46.208Z,4.60
2019-05-17T10:47:06.609Z,4.37
2019-05-17T10:49:36.706Z,3.77
2019-05-17T10:52:06.813Z,3.63
2019-05-17T10:54:40.259Z,4.00
2019-05-17T10:57:10.644Z,4.13
2019-05-17T10:59:40.791Z,4.17
2019-05-17T11:02:11.088Z,4.20
2019-05-17T11:04:41.159Z,4.33
2019-05-17T11:07:11.450Z,4.00
2019-05-17T11:09:41.513Z,4.00
2019-05-17T11:12:11.600Z,4.27
2019-05-17T11:14:52.235Z,4.43
2019-05-17T11:17:13.616Z,4.13
2019-05-17T11:19:43.717Z,3.60
2019-05-17T11:22:13.875Z,3.63
2019-05-17T11:24:43.986Z,3.53
2019-05-17T11:27:14.214Z,4.40
2019-05-17T11:29:44.316Z,4.23
2019-05-17T11:32:14.381Z,5.27
2019-05-17T11:34:44.497Z,4.40
2019-05-17T11:37:14.576Z,4.67
2019-05-17T11:39:44.668Z,4.60
2019-05-17T11:42:14.754Z,3.80
2019-05-17T11:44:44.835Z,4.07
2019-05-17T11:47:14.921Z,4.07
2019-05-17T11:49:45.070Z,3.80
2019-05-17T11:52:15.171Z,3.97
2019-05-17T11:54:45.311Z,4.17
2019-05-17T11:57:15.395Z,3.90
2019-05-17T11:59:45.556Z,3.93
2019-05-17T12:02:15.626Z,4.07
2019-05-17T12:04:45.709Z,4.20
2019-05-17T12:07:15.781Z,4.17
2019-05-17T12:09:45.906Z,4.23
2019-05-17T12:12:15.989Z,5.33
2019-05-17T12:14:46.096Z,4.87
2019-05-17T12:17:16.200Z,4.50
2019-05-17T12:19:46.301Z,5.17
2019-05-17T12:22:16.378Z,5.47
2019-05-17T12:24:46.463Z,4.77
2019-05-17T12:27:16.612Z,4.90
2019-05-17T12:29:46.719Z,4.27
2019-05-17T12:32:17.321Z,4.03
2019-05-17T12:34:47.409Z,4.37
2019-05-17T12:37:17.534Z,4.53
2019-05-17T12:39:47.667Z,4.43
2019-05-17T12:42:17.764Z,4.13
2019-05-17T12:44:47.845Z,4.47
2019-05-17T12:47:17.950Z,4.37
2019-05-17T12:49:48.066Z,3.80
2019-05-17T12:52:18.184Z,4.67
2019-05-17T12:54:48.275Z,4.90
2019-05-17T12:57:18.352Z,4.03
2019-05-17T12:59:48.439Z,4.23
2019-05-17T13:02:18.514Z,3.70
2019-05-17T13:04:48.625Z,4.23
2019-05-17T13:07:18.731Z,4.33
2019-05-17T13:09:48.843Z,4.07
2019-05-17T13:12:18.909Z,4.13
2019-05-17T13:14:49.018Z,3.70
2019-05-17T13:17:19.084Z,3.80
2019-05-17T13:19:49.148Z,3.13
2019-05-17T13:22:20.081Z,4.00
2019-05-17T13:24:51.638Z,4.27
2019-05-17T13:27:21.771Z,3.70
2019-05-17T13:29:51.942Z,3.50
2019-05-17T13:32:22.064Z,3.70
2019-05-17T13:34:52.186Z,4.00
2019-05-17T13:37:29.107Z,3.93
2019-05-17T13:39:59.231Z,4.37
2019-05-17T13:42:29.385Z,4.10
2019-05-17T13:44:59.456Z,3.40
2019-05-17T13:47:29.578Z,3.70
2019-05-17T13:49:59.704Z,3.77
2019-05-17T13:52:29.828Z,3.90
2019-05-17T13:54:59.916Z,3.50
2019-05-17T13:57:30.022Z,3.53
2019-05-17T14:00:00.089Z,3.53
2019-05-17T14:02:30.166Z,3.43
2019-05-17T14:05:00.332Z,3.47
2019-05-17T14:07:30.467Z,3.43
2019-05-17T14:10:00.604Z,3.67
2019-05-17T14:12:30.746Z,3.83
2019-05-17T14:15:00.846Z,3.60
2019-05-17T14:17:30.966Z,3.67
2019-05-17T14:20:01.033Z,3.53
2019-05-17T14:22:35.943Z,3.67
2019-05-17T14:25:05.562Z,3.70
2019-05-17T14:27:35.663Z,3.70
2019-05-17T14:30:06.987Z,4.07
2019-05-17T14:32:37.116Z,4.00
2019-05-17T14:35:08.111Z,3.47
2019-05-17T14:37:38.209Z,4.00
2019-05-17T14:40:08.542Z,3.70
2019-05-17T14:42:38.642Z,3.67
2019-05-17T14:45:09.083Z,3.90
2019-05-17T14:47:39.393Z,3.63
2019-05-17T14:50:10.399Z,3.70
2019-05-17T14:52:40.575Z,4.00
2019-05-17T14:55:10.871Z,3.80
2019-05-17T14:57:43.115Z,3.60
2019-05-17T15:00:13.173Z,3.80
2019-05-17T15:02:43.293Z,4.10
2019-05-17T15:05:13.403Z,3.50
2019-05-17T15:07:43.518Z,3.50
2019-05-17T15:10:13.890Z,4.47
2019-05-17T15:12:44.010Z,4.20
2019-05-17T15:15:14.652Z,3.60
2019-05-17T15:17:44.782Z,3.63
2019-05-17T15:20:15.086Z,4.00
2019-05-17T15:22:45.234Z,4.13
2019-05-17T15:25:15.531Z,4.27
2019-05-17T15:27:45.650Z,4.77
2019-05-17T15:30:15.997Z,4.60
2019-05-17T15:32:46.131Z,3.83
2019-05-17T15:35:16.229Z,4.00
2019-05-17T15:37:46.332Z,4.10
2019-05-17T15:40:16.597Z,4.47
2019-05-17T15:42:46.707Z,4.30
2019-05-17T15:45:16.767Z,4.27
2019-05-17T15:47:46.879Z,4.20
2019-05-17T15:50:17.341Z,4.43
2019-05-17T15:52:47.502Z,4.10
2019-05-17T15:55:18.618Z,4.00
2019-05-17T15:57:48.767Z,3.93
2019-05-17T16:00:19.211Z,3.63
2019-05-17T16:02:49.331Z,3.93
2019-05-17T16:05:19.424Z,4.10
2019-05-17T16:07:49.521Z,4.10
2019-05-17T16:10:19.804Z,3.93
2019-05-17T16:13:01.904Z,4.10
2019-05-17T16:15:21.897Z,4.60
2019-05-17T16:18:00.259Z,4.10
2019-05-17T16:20:30.583Z,4.03
2019-05-17T16:23:00.656Z,3.97
2019-05-17T16:25:33.863Z,4.13
2019-05-17T16:28:02.895Z,4.10
2019-05-17T16:30:38.459Z,3.70
2019-05-17T16:33:08.920Z,4.20
2019-05-17T16:35:39.089Z,3.47
2019-05-17T16:38:09.183Z,3.50
2019-05-17T16:40:39.269Z,4.10
2019-05-17T16:43:18.054Z,3.37
2019-05-17T16:45:44.115Z,3.67
2019-05-17T16:48:15.031Z,3.30
2019-05-17T16:50:45.035Z,3.20
2019-05-17T16:53:15.130Z,3.50
2019-05-17T16:55:45.270Z,4.63
2019-05-17T16:58:15.747Z,6.53
2019-05-17T17:00:49.498Z,5.97
2019-05-17T17:03:23.142Z,6.40
2019-05-17T17:05:53.169Z,5.57
2019-05-17T17:08:23.265Z,7.37
2019-05-17T17:10:53.367Z,6.20
2019-05-17T17:13:32.698Z,6.23
2019-05-17T17:15:55.392Z,6.40
2019-05-17T17:18:25.537Z,6.37
2019-05-17T17:20:55.646Z,6.37
2019-05-17T17:23:25.734Z,6.10
2019-05-17T17:25:56.470Z,5.90
2019-05-17T17:28:26.898Z,6.63
2019-05-17T17:30:57.005Z,6.50
2019-05-17T17:33:27.900Z,6.03
2019-05-17T17:35:58.054Z,6.23
2019-05-17T17:38:28.541Z,5.47
2019-05-17T17:40:58.663Z,6.03
2019-05-17T17:43:29.900Z,5.37
2019-05-17T17:45:59.988Z,6.30
2019-05-17T17:48:33.240Z,5.13
2019-05-17T17:51:03.364Z,4.93
2019-05-17T17:53:33.538Z,5.70
2019-05-17T17:56:03.678Z,5.43
2019-05-17T17:58:33.878Z,6.17
2019-05-17T18:01:04.028Z,5.53
2019-05-17T18:03:34.347Z,5.47
2019-05-17T18:06:08.005Z,5.83
2019-05-17T18:08:38.137Z,6.10
2019-05-17T18:11:08.265Z,6.23
2019-05-17T18:13:38.384Z,5.50
2019-05-17T18:16:09.084Z,5.80
2019-05-17T18:18:39.188Z,6.03
2019-05-17T18:21:09.440Z,6.43
2019-05-17T18:23:39.534Z,7.20
2019-05-17T18:26:09.705Z,6.67
2019-05-17T18:28:39.993Z,6.50
2019-05-17T18:31:10.277Z,7.03
2019-05-17T18:33:40.378Z,5.77
2019-05-17T18:36:10.601Z,6.20
2019-05-17T18:38:41.203Z,6.30
2019-05-17T18:41:11.322Z,6.63
2019-05-17T18:43:41.426Z,5.87
2019-05-17T18:46:12.719Z,6.57
2019-05-17T18:48:42.937Z,6.60
2019-05-17T18:51:13.060Z,6.30
2019-05-17T18:53:44.303Z,9.40
2019-05-17T18:56:14.534Z,7.50
2019-05-17T18:58:44.651Z,6.73
2019-05-17T19:01:14.954Z,6.17
2019-05-17T19:03:45.052Z,6.70
2019-05-17T19:06:15.835Z,6.27
2019-05-17T19:08:46.088Z,5.93
2019-05-17T19:11:16.304Z,8.77
2019-05-17T19:13:46.382Z,6.90
2019-05-17T19:16:17.258Z,6.60
2019-05-17T19:18:47.678Z,6.40
2019-05-17T19:21:17.780Z,6.30
2019-05-17T19:23:47.946Z,7.23
2019-05-17T19:26:18.102Z,5.93
2019-05-17T19:28:48.326Z,7.07
2019-05-17T19:31:18.439Z,7.03
2019-05-17T19:33:48.590Z,6.80
2019-05-17T19:36:18.740Z,6.57
2019-05-17T19:38:48.925Z,7.47
2019-05-17T19:41:19.076Z,7.80
2019-05-17T19:43:49.192Z,6.87
2019-05-17T19:46:19.324Z,6.90
2019-05-17T19:48:49.511Z,9.00
2019-05-17T19:51:19.781Z,8.23
2019-05-17T19:53:49.924Z,7.83
2019-05-17T19:56:20.206Z,8.07
2019-05-17T19:58:53.466Z,7.77
2019-05-17T20:01:23.621Z,7.40
2019-05-17T20:03:53.722Z,7.53
2019-05-17T20:06:23.954Z,7.93
2019-05-17T20:08:54.148Z,7.13
2019-05-17T20:11:33.885Z,8.67
2019-05-17T20:13:56.078Z,7.50
2019-05-17T20:16:26.255Z,8.07
2019-05-17T20:18:56.385Z,9.43
2019-05-17T20:21:26.561Z,8.20
2019-05-17T20:23:57.126Z,8.57
2019-05-17T20:26:27.268Z,8.13
2019-05-17T20:28:57.372Z,7.90
2019-05-17T20:31:27.546Z,8.80
2019-05-17T20:33:57.657Z,8.77
2019-05-17T20:36:27.972Z,8.50
2019-05-17T20:38:58.061Z,10.73
2019-05-17T20:41:28.215Z,10.67
2019-05-17T20:43:58.402Z,9.77
2019-05-17T20:46:30.599Z,10.07
2019-05-17T20:49:02.185Z,10.00
2019-05-17T20:51:32.273Z,12.20
2019-05-17T20:54:02.461Z,11.93
2019-05-17T20:56:33.451Z,13.93
2019-05-17T20:59:04.174Z,15.43
2019-05-17T21:01:34.317Z,22.73
2019-05-17T21:04:04.392Z,16.07
2019-05-17T21:06:34.603Z,13.73
2019-05-17T21:09:06.250Z,14.57
2019-05-17T21:11:36.513Z,14.03
2019-05-17T21:14:09.353Z,13.13
2019-05-17T21:16:39.487Z,14.83
2019-05-17T21:19:12.472Z,12.70
2019-05-17T21:21:42.616Z,15.00
2019-05-17T21:24:12.770Z,13.37
2019-05-17T21:26:42.935Z,13.27
2019-05-17T21:29:13.046Z,14.30
2019-05-17T21:31:43.132Z,14.17
2019-05-17T21:34:13.395Z,14.77
2019-05-17T21:36:43.493Z,15.37
2019-05-17T21:39:13.631Z,14.23
2019-05-17T21:41:43.989Z,14.00
2019-05-17T21:44:14.373Z,12.47
2019-05-17T21:46:44.602Z,13.90
2019-05-17T21:49:14.695Z,13.70
2019-05-17T21:51:44.838Z,14.33
2019-05-17T21:54:14.929Z,13.53
2019-05-17T21:56:45.031Z,13.43
2019-05-17T21:59:15.254Z,15.27
2019-05-17T22:01:46.327Z,13.23
2019-05-17T22:04:16.445Z,14.30
2019-05-17T22:06:54.800Z,14.37
2019-05-17T22:09:24.948Z,13.97
2019-05-17T22:11:56.859Z,15.00
2019-05-17T22:14:26.977Z,14.93
2019-05-17T22:16:57.178Z,14.70
2019-05-17T22:19:27.344Z,14.40
2019-05-17T22:21:57.422Z,15.77
2019-05-17T22:24:27.567Z,16.53
2019-05-17T22:26:57.663Z,15.33
2019-05-17T22:29:29.169Z,15.27
2019-05-17T22:31:59.415Z,15.13
2019-05-17T22:34:32.422Z,16.37
2019-05-17T22:37:02.527Z,15.70
2019-05-17T22:39:32.635Z,17.77
2019-05-17T22:42:02.724Z,16.17
2019-05-17T22:44:32.874Z,18.07
2019-05-17T22:47:02.965Z,17.17
2019-05-17T22:49:33.068Z,18.03
2019-05-17T22:52:03.211Z,19.30
2019-05-17T22:54:33.261Z,18.03
2019-05-17T22:57:03.370Z,18.07
2019-05-17T22:59:33.464Z,19.50
2019-05-17T23:02:03.593Z,18.37
2019-05-17T23:04:33.659Z,17.17
2019-05-17T23:07:03.719Z,17.17
2019-05-17T23:09:33.821Z,17.90
2019-05-17T23:12:03.890Z,17.37
2019-05-17T23:14:33.999Z,18.67
2019-05-17T23:17:04.777Z,18.50
2019-05-17T23:19:34.879Z,18.37
2019-05-17T23:22:05.465Z,17.47
2019-05-17T23:24:35.534Z,18.53
2019-05-17T23:27:05.641Z,19.53
2019-05-17T23:29:35.721Z,18.37
2019-05-17T23:32:05.837Z,18.97
2019-05-17T23:34:35.910Z,19.60
2019-05-17T23:37:05.993Z,19.77
2019-05-17T23:39:36.124Z,18.23
2019-05-17T23:42:06.206Z,18.17
2019-05-17T23:44:36.307Z,18.47
2019-05-17T23:47:07.551Z,17.43
2019-05-17T23:49:37.771Z,17.27
2019-05-17T23:52:07.879Z,16.17
2019-05-17T23:54:37.937Z,16.97
2019-05-17T23:57:08.031Z,16.80
2019-05-17T23:59:38.119Z,17.47
